createdAt,value
2022-09-28T00:01:18.868Z,99.90
2022-09-28T00:06:24.387Z,99.90
2022-09-28T00:11:28.370Z,99.90
2022-09-28T00:16:34.652Z,99.90
2022-09-28T00:21:39.135Z,99.90
2022-09-28T00:26:46.201Z,99.90
2022-09-28T00:31:52.488Z,99.90
2022-09-28T00:36:59.059Z,99.90
2022-09-28T00:42:03.750Z,99.90
2022-09-28T00:47:40.120Z,99.90
2022-09-28T00:52:52.748Z,99.90
2022-09-28T00:57:58.344Z,99.90
2022-09-28T01:03:01.327Z,99.90
2022-09-28T01:08:05.763Z,99.90
2022-09-28T01:13:08.210Z,99.90
2022-09-28T01:18:19.201Z,99.90
2022-09-28T01:23:39.919Z,99.70
2022-09-28T01:28:45.604Z,99.60
2022-09-28T01:33:58.050Z,99.50
2022-09-28T01:39:07.808Z,99.50
2022-09-28T01:44:15.940Z,99.60
2022-09-28T01:49:27.151Z,99.30
2022-09-28T01:54:37.769Z,99.30
2022-09-28T01:59:49.583Z,99.20
2022-09-28T02:04:59.871Z,99.10
2022-09-28T02:10:09.923Z,99.00
2022-09-28T02:15:19.125Z,98.90
2022-09-28T02:20:23.160Z,98.80
2022-09-28T02:25:45.204Z,98.70
2022-09-28T02:30:48.250Z,98.50
2022-09-28T02:35:51.217Z,98.30
2022-09-28T02:41:14.949Z,98.30
2022-09-28T02:46:28.824Z,98.10
2022-09-28T02:51:51.010Z,98.10
2022-09-28T02:57:11.268Z,97.90
2022-09-28T03:02:31.800Z,97.70
2022-09-28T03:08:01.570Z,97.60
2022-09-28T03:13:05.667Z,97.70
2022-09-28T03:18:09.073Z,97.60
2022-09-28T03:23:26.918Z,97.40
2022-09-28T03:28:29.917Z,97.40
2022-09-28T03:33:33.420Z,97.60
2022-09-28T03:38:36.007Z,97.20
2022-09-28T03:43:38.610Z,97.10
2022-09-28T03:48:41.571Z,96.90
2022-09-28T03:53:46.006Z,96.80
2022-09-28T03:58:48.988Z,96.70
2022-09-28T04:03:57.904Z,96.50
2022-09-28T04:09:00.848Z,96.30
2022-09-28T04:14:04.405Z,96.30
2022-09-28T04:19:07.251Z,96.10
2022-09-28T04:24:37.050Z,99.90
2022-09-28T04:34:46.518Z,99.90
2022-09-28T04:39:48.935Z,99.90
2022-09-28T04:44:54.573Z,99.90
2022-09-28T04:49:57.446Z,99.90
2022-09-28T04:55:14.549Z,99.90
2022-09-28T05:00:17.325Z,99.90
2022-09-28T05:05:32.230Z,99.90
2022-09-28T05:11:05.777Z,99.90
2022-09-28T05:16:09.562Z,99.90
2022-09-28T05:21:29.326Z,99.90
2022-09-28T05:26:31.822Z,99.90
2022-09-28T05:31:35.019Z,99.90
2022-09-28T05:36:45.737Z,99.90
2022-09-28T05:41:48.342Z,99.90
2022-09-28T05:46:52.624Z,99.90
2022-09-28T05:51:55.124Z,99.90
2022-09-28T05:56:57.906Z,99.90
2022-09-28T06:02:00.438Z,99.90
2022-09-28T06:07:02.942Z,96.00
2022-09-28T06:12:05.426Z,95.30
2022-09-28T06:17:16.890Z,95.10
2022-09-28T06:22:24.235Z,94.20
2022-09-28T06:28:01.672Z,96.10
2022-09-28T06:33:05.839Z,97.50
2022-09-28T06:38:08.367Z,98.70
2022-09-28T06:43:15.530Z,99.80
2022-09-28T06:48:36.689Z,99.90
2022-09-28T06:53:40.447Z,99.90
2022-09-28T06:58:54.774Z,99.90
2022-09-28T07:03:57.916Z,99.90
2022-09-28T07:09:31.819Z,99.90
2022-09-28T07:14:57.723Z,99.90
2022-09-28T07:20:14.671Z,99.90
2022-09-28T07:25:18.986Z,99.90
2022-09-28T07:30:40.228Z,99.90
2022-09-28T07:35:55.489Z,99.90
2022-09-28T07:41:11.483Z,99.30
2022-09-28T07:46:19.315Z,97.60
2022-09-28T07:51:35.280Z,97.70
2022-09-28T07:56:58.242Z,97.40
2022-09-28T08:02:32.361Z,97.10
2022-09-28T08:07:38.200Z,96.70
2022-09-28T08:12:43.777Z,96.30
2022-09-28T08:18:02.777Z,97.30
2022-09-28T08:23:10.057Z,97.20
2022-09-28T08:28:15.963Z,96.80
2022-09-28T08:33:21.779Z,96.30
2022-09-28T08:38:25.719Z,96.90
2022-09-28T08:43:59.101Z,96.80
2022-09-28T08:49:30.444Z,98.90
2022-09-28T08:55:00.324Z,98.40
2022-09-28T09:00:31.367Z,98.50
2022-09-28T09:06:04.425Z,99.60
2022-09-28T09:11:44.409Z,99.90
2022-09-28T09:16:51.258Z,98.00
2022-09-28T09:22:26.044Z,99.90
2022-09-28T09:27:46.921Z,99.60
2022-09-28T09:33:27.459Z,98.00
2022-09-28T09:38:55.612Z,97.20
2022-09-28T09:44:47.203Z,97.30
2022-09-28T09:50:30.419Z,96.50
2022-09-28T09:55:41.937Z,96.20
2022-09-28T10:01:04.824Z,96.10
2022-09-28T10:06:33.331Z,96.20
2022-09-28T10:11:42.482Z,97.40
2022-09-28T10:16:48.558Z,96.20
2022-09-28T10:22:05.918Z,93.60
2022-09-28T10:27:22.423Z,98.90
2022-09-28T10:32:28.427Z,96.70
2022-09-28T10:37:32.495Z,96.40
2022-09-28T10:42:45.189Z,96.00
2022-09-28T10:47:47.958Z,96.00
2022-09-28T10:52:52.045Z,95.90
2022-09-28T10:58:26.018Z,96.00
2022-09-28T11:03:30.411Z,95.70
2022-09-28T11:08:44.612Z,95.40
2022-09-28T11:13:56.598Z,95.40
2022-09-28T11:19:20.768Z,95.50
2022-09-28T11:24:26.229Z,95.50
2022-09-28T11:29:41.880Z,95.50
2022-09-28T11:35:16.308Z,95.50
2022-09-28T11:40:30.112Z,95.90
2022-09-28T11:45:54.779Z,96.00
2022-09-28T11:51:06.022Z,95.70
2022-09-28T11:56:38.872Z,95.60
2022-09-28T12:01:58.579Z,95.40
2022-09-28T12:07:53.587Z,93.20
2022-09-28T12:13:25.494Z,96.50
2022-09-28T12:18:49.795Z,95.90
2022-09-28T12:23:56.240Z,95.50
2022-09-28T12:29:03.177Z,93.60
2022-09-28T12:34:05.972Z,95.60
2022-09-28T12:39:46.955Z,95.70
2022-09-28T12:44:53.784Z,97.00
2022-09-28T12:55:31.201Z,96.40
2022-09-28T13:00:46.169Z,96.10
2022-09-28T13:06:08.504Z,96.10
2022-09-28T13:11:25.576Z,96.50
2022-09-28T13:16:50.992Z,96.50
2022-09-28T13:22:03.834Z,96.30
2022-09-28T13:27:21.891Z,96.20
2022-09-28T13:32:26.514Z,96.10
2022-09-28T13:37:29.771Z,96.50
2022-09-28T13:42:55.096Z,99.70
2022-09-28T13:48:23.539Z,99.90
2022-09-28T13:53:37.569Z,99.90
2022-09-28T13:58:48.598Z,99.90
2022-09-28T14:04:21.953Z,99.70
2022-09-28T14:09:40.204Z,99.90
2022-09-28T14:14:52.063Z,99.90
2022-09-28T14:20:04.893Z,99.90
2022-09-28T14:25:10.419Z,99.90
2022-09-28T14:30:12.741Z,99.90
2022-09-28T14:35:32.439Z,99.90
2022-09-28T14:41:11.323Z,99.90
2022-09-28T14:46:23.235Z,99.90
2022-09-28T14:51:35.466Z,99.90
2022-09-28T14:56:44.199Z,99.90
2022-09-28T15:02:01.063Z,99.90
2022-09-28T15:07:03.440Z,99.90
2022-09-28T15:12:18.415Z,99.90
2022-09-28T15:17:24.910Z,99.90
2022-09-28T15:22:27.571Z,99.90
2022-09-28T15:27:38.105Z,99.90
2022-09-28T15:32:40.473Z,99.90
2022-09-28T15:37:44.851Z,99.90
2022-09-28T15:42:47.477Z,99.90
2022-09-28T15:47:50.637Z,99.90
2022-09-28T15:52:56.792Z,99.90
2022-09-28T15:58:07.610Z,99.90
2022-09-28T16:03:10.040Z,99.90
2022-09-28T16:08:36.784Z,99.90
2022-09-28T16:14:02.174Z,99.90
2022-09-28T16:19:05.970Z,99.90
2022-09-28T16:24:23.340Z,99.90
2022-09-28T16:29:36.681Z,99.90
2022-09-28T16:34:39.119Z,99.90
2022-09-28T16:39:41.541Z,99.90
2022-09-28T16:44:43.920Z,99.90
2022-09-28T16:49:48.049Z,99.90
2022-09-28T16:55:39.470Z,99.90
2022-09-28T17:00:43.518Z,99.90
2022-09-28T17:05:48.018Z,99.90
2022-09-28T17:11:15.739Z,99.90
2022-09-28T17:16:32.218Z,99.90
2022-09-28T17:21:44.438Z,99.90
2022-09-28T17:26:49.359Z,99.90
2022-09-28T17:31:52.187Z,99.90
2022-09-28T17:36:54.794Z,99.90
2022-09-28T17:41:57.169Z,99.90
2022-09-28T17:47:01.025Z,99.90
2022-09-28T17:52:05.536Z,99.90
2022-09-28T17:57:09.905Z,99.90
2022-09-28T18:02:12.486Z,99.90
2022-09-28T18:07:14.963Z,99.90
2022-09-28T18:12:17.442Z,99.90
2022-09-28T18:17:20.025Z,99.90
2022-09-28T18:22:22.966Z,99.90
2022-09-28T18:27:27.364Z,99.90
2022-09-28T18:32:29.863Z,99.90
2022-09-28T18:37:36.400Z,99.90
2022-09-28T18:42:39.895Z,99.90
2022-09-28T18:47:42.385Z,99.90
2022-09-28T18:52:47.290Z,99.90
2022-09-28T18:57:49.903Z,98.60
2022-09-28T19:02:52.446Z,99.50
2022-09-28T19:07:55.382Z,99.90
2022-09-28T19:12:58.037Z,99.90
2022-09-28T19:18:00.442Z,99.90
2022-09-28T19:23:04.101Z,99.90
2022-09-28T19:28:06.577Z,99.90
2022-09-28T19:33:08.902Z,99.90
2022-09-28T19:38:11.355Z,99.90
2022-09-28T19:43:14.701Z,99.90
2022-09-28T19:48:17.078Z,99.90
2022-09-28T19:53:19.459Z,99.90
2022-09-28T19:58:28.831Z,99.90
2022-09-28T20:03:31.186Z,99.90
2022-09-28T20:08:33.984Z,99.90
2022-09-28T20:13:37.845Z,99.90
2022-09-28T20:18:49.959Z,99.90
2022-09-28T20:23:59.397Z,99.90
2022-09-28T20:29:01.701Z,99.90
2022-09-28T20:34:07.352Z,99.90
2022-09-28T20:39:10.802Z,99.90
2022-09-28T20:44:13.379Z,99.90
2022-09-28T20:49:15.915Z,99.90
2022-09-28T20:54:19.035Z,99.90
2022-09-28T20:59:24.406Z,99.90
2022-09-28T21:04:27.125Z,99.90
2022-09-28T21:09:32.080Z,99.90
2022-09-28T21:14:34.455Z,99.90
2022-09-28T21:19:36.856Z,99.90
2022-09-28T21:24:39.544Z,99.90
2022-09-28T21:29:41.967Z,99.90
2022-09-28T21:34:44.380Z,99.90
2022-09-28T21:39:46.865Z,99.90
2022-09-28T21:44:49.407Z,99.80
2022-09-28T21:49:51.745Z,99.80
2022-09-28T21:54:54.137Z,99.90
2022-09-28T22:00:04.373Z,99.90
2022-09-28T22:05:08.216Z,99.90
2022-09-28T22:10:13.081Z,99.90
2022-09-28T22:15:15.507Z,99.80
2022-09-28T22:20:17.902Z,99.70
2022-09-28T22:25:20.253Z,99.60
2022-09-28T22:30:22.579Z,99.60
2022-09-28T22:35:25.086Z,99.50
2022-09-28T22:40:27.594Z,99.50
2022-09-28T22:45:30.255Z,99.40
2022-09-28T22:50:32.720Z,99.30
2022-09-28T22:55:35.173Z,99.30
2022-09-28T23:00:37.730Z,99.20
2022-09-28T23:05:40.069Z,99.20
2022-09-28T23:10:42.507Z,99.10
2022-09-28T23:15:58.203Z,99.00
2022-09-28T23:21:05.844Z,99.10
2022-09-28T23:26:16.965Z,99.10
2022-09-28T23:31:23.166Z,99.10
2022-09-28T23:36:25.919Z,99.10
2022-09-28T23:41:28.362Z,98.90
2022-09-28T23:46:30.756Z,99.10
2022-09-28T23:51:33.174Z,98.80
2022-09-28T23:56:36.005Z,98.70
